createdAt,value
2022-12-02T00:00:02.574Z,4.81
2022-12-02T00:07:01.354Z,4.81
2022-12-02T00:14:01.846Z,4.43
2022-12-02T00:21:01.853Z,4.43
2022-12-02T00:28:01.837Z,4.78
2022-12-02T00:35:01.909Z,4.78
2022-12-02T00:42:01.543Z,4.72
2022-12-02T00:49:01.424Z,4.66
2022-12-02T00:56:01.545Z,4.66
2022-12-02T01:00:02.085Z,4.66
2022-12-02T01:07:01.457Z,4.5
2022-12-02T01:14:01.338Z,4.48
2022-12-02T01:21:01.407Z,4.48
2022-12-02T01:28:02.185Z,4.54
2022-12-02T01:35:02.081Z,4.54
2022-12-02T01:42:01.812Z,4.58
2022-12-02T01:49:01.722Z,4.58
2022-12-02T01:56:01.317Z,4.62
2022-12-02T02:00:01.874Z,4.62
2022-12-02T02:07:01.479Z,4.62
2022-12-02T02:14:02.246Z,4.62
2022-12-02T02:21:01.421Z,4.62
2022-12-02T03:00:02.094Z,4.75
2022-12-02T03:07:02.085Z,4.75
2022-12-02T03:14:01.421Z,4.69
2022-12-02T03:21:02.295Z,4.69
2022-12-02T03:28:02.010Z,4.69
2022-12-02T03:35:02.061Z,4.69
2022-12-02T04:07:01.446Z,4.76
2022-12-02T04:14:01.833Z,4.76
2022-12-02T04:21:02.148Z,4.67
2022-12-02T04:28:02.109Z,4.67
2022-12-02T04:35:02.051Z,4.62
2022-12-02T04:42:01.963Z,4.62
2022-12-02T04:49:01.289Z,4.59
2022-12-02T04:56:01.867Z,4.58
2022-12-02T05:00:02.496Z,4.58
2022-12-02T05:07:02.098Z,4.58
2022-12-02T05:14:01.625Z,4.59
2022-12-02T05:21:02.094Z,4.61
2022-12-02T05:28:02.281Z,4.61
2022-12-02T05:35:02.313Z,4.54
2022-12-02T05:42:01.976Z,4.54
2022-12-02T05:49:02.016Z,4.57
2022-12-02T05:56:01.608Z,4.57
2022-12-02T06:00:02.161Z,4.6
2022-12-02T06:07:01.896Z,4.6
2022-12-02T06:14:01.715Z,4.59
2022-12-02T06:21:01.546Z,4.59
2022-12-02T06:28:04.678Z,4.64
2022-12-02T06:35:01.757Z,4.64
2022-12-02T06:42:01.893Z,4.6
2022-12-02T06:49:01.912Z,4.6
2022-12-02T06:56:01.969Z,4.63
2022-12-02T07:00:01.491Z,4.63
2022-12-02T07:07:02.197Z,4.63
2022-12-02T07:14:02.135Z,4.63
2022-12-02T07:21:02.100Z,4.67
2022-12-02T07:28:02.263Z,4.67
2022-12-02T07:35:02.004Z,4.63
2022-12-02T07:42:01.779Z,4.63
2022-12-02T07:49:02.115Z,4.63
2022-12-02T07:56:01.557Z,4.63
2022-12-02T08:00:02.140Z,4.63
2022-12-02T08:07:01.712Z,4.63
2022-12-02T08:14:02.267Z,4.62
2022-12-02T08:21:05.596Z,4.61
2022-12-02T08:28:01.980Z,4.61
2022-12-02T08:35:02.059Z,4.64
2022-12-02T08:42:01.757Z,4.64
2022-12-02T08:49:02.279Z,4.57
2022-12-02T08:56:01.903Z,4.57
2022-12-02T09:00:02.515Z,4.66
2022-12-02T09:07:01.796Z,4.66
2022-12-02T09:14:01.703Z,4.66
2022-12-02T09:21:02.165Z,4.66
2022-12-02T09:28:01.778Z,4.63
2022-12-02T09:35:02.445Z,4.63
2022-12-02T09:42:01.430Z,4.66
2022-12-02T09:49:01.790Z,4.66
2022-12-02T09:56:01.952Z,4.66
2022-12-02T10:00:02.546Z,4.66
2022-12-02T10:07:01.554Z,4.67
2022-12-02T10:14:02.009Z,4.67
2022-12-02T10:21:01.325Z,4.68
2022-12-02T10:28:02.074Z,4.68
2022-12-02T10:35:02.464Z,4.71
2022-12-02T10:42:01.350Z,4.73
2022-12-02T10:49:02.335Z,4.73
2022-12-02T10:56:02.085Z,4.72
2022-12-02T11:00:01.601Z,4.72
2022-12-02T11:07:02.267Z,4.72
2022-12-02T11:14:01.876Z,4.66
2022-12-02T11:21:01.733Z,4.77
2022-12-02T11:28:01.535Z,4.77
2022-12-02T11:35:17.546Z,4.8
2022-12-02T11:42:01.984Z,4.8
2022-12-02T11:49:02.016Z,4.78
2022-12-02T11:56:01.515Z,4.78
2022-12-02T12:00:01.991Z,4.85
2022-12-02T12:07:02.274Z,4.85
2022-12-02T12:14:01.832Z,4.86
2022-12-02T12:21:02.257Z,4.86
2022-12-02T12:28:02.323Z,4.87
2022-12-02T12:35:01.957Z,4.87
2022-12-02T12:42:02.480Z,4.87
2022-12-02T12:49:01.434Z,4.87
2022-12-02T12:56:01.575Z,4.8
2022-12-02T13:00:02.153Z,4.8
2022-12-02T13:07:01.849Z,4.77
2022-12-02T13:14:02.156Z,4.77
2022-12-02T13:21:01.949Z,4.63
2022-12-02T13:28:01.911Z,4.63
2022-12-02T13:35:02.191Z,4.74
2022-12-02T13:42:02.229Z,4.67
2022-12-02T13:49:01.488Z,4.67
2022-12-02T13:56:01.520Z,4.74
2022-12-02T14:00:02.047Z,4.74
2022-12-02T14:07:01.533Z,4.74
2022-12-02T14:14:02.200Z,4.79
2022-12-02T14:21:01.528Z,4.72
2022-12-02T14:28:01.590Z,4.72
2022-12-02T14:35:02.398Z,4.65
2022-12-02T14:42:01.530Z,4.65
2022-12-02T14:49:37.168Z,4.58
2022-12-02T14:56:01.672Z,4.58
2022-12-02T15:00:02.228Z,4.61
2022-12-02T15:07:02.116Z,4.61
2022-12-02T15:14:01.323Z,4.59
2022-12-02T15:21:02.142Z,4.59
2022-12-02T15:28:01.477Z,4.52
2022-12-02T15:35:01.816Z,4.52
2022-12-02T15:42:01.553Z,4.49
2022-12-02T15:49:01.994Z,4.49
2022-12-02T15:56:01.664Z,4.46
2022-12-02T16:00:02.189Z,4.46
2022-12-02T16:07:02.216Z,4.42
2022-12-02T16:14:01.483Z,4.42
2022-12-02T16:21:02.279Z,4.4
2022-12-02T16:28:01.789Z,4.4
2022-12-02T16:35:02.276Z,4.35
2022-12-02T16:42:01.826Z,4.31
2022-12-02T16:49:01.668Z,4.31
2022-12-02T16:56:02.073Z,4.28
2022-12-02T17:00:01.651Z,4.28
2022-12-02T17:07:01.725Z,4.22
2022-12-02T17:14:01.547Z,4.22
2022-12-02T17:21:02.109Z,4.1
2022-12-02T17:28:01.584Z,4.1
2022-12-02T17:35:02.168Z,4.06
2022-12-02T17:42:01.511Z,4.06
2022-12-02T17:49:01.767Z,4.04
2022-12-02T17:56:01.870Z,4.04
2022-12-02T18:00:02.516Z,3.99
2022-12-02T18:07:06.566Z,3.99
2022-12-02T18:14:02.357Z,3.91
2022-12-02T18:21:02.076Z,3.91
2022-12-02T18:28:01.935Z,3.85
2022-12-02T18:35:02.393Z,3.85
2022-12-02T18:42:01.610Z,3.81
2022-12-02T18:49:01.444Z,3.81
2022-12-02T18:56:02.286Z,3.79
2022-12-02T19:00:01.886Z,3.79
2022-12-02T19:07:01.380Z,3.76
2022-12-02T19:14:02.265Z,3.76
2022-12-02T19:21:02.072Z,3.73
2022-12-02T19:28:01.424Z,3.73
2022-12-02T19:35:02.574Z,3.68
2022-12-02T19:42:01.457Z,3.66
2022-12-02T19:49:02.294Z,3.66
2022-12-02T19:56:01.746Z,3.54
2022-12-02T20:00:02.475Z,3.54
2022-12-02T20:07:02.280Z,3.5
2022-12-02T20:14:01.823Z,3.5
2022-12-02T20:21:02.057Z,3.42
2022-12-02T20:28:01.652Z,3.42
2022-12-02T20:35:02.307Z,3.41
2022-12-02T20:42:01.926Z,3.41
2022-12-02T20:49:02.179Z,3.23
2022-12-02T20:56:02.273Z,3.23
2022-12-02T21:00:01.851Z,3.32
2022-12-02T21:07:06.429Z,3.32
2022-12-02T21:14:01.752Z,3.32
2022-12-02T21:21:02.285Z,3.32
2022-12-02T21:28:01.621Z,3.27
2022-12-02T21:35:07.860Z,3.27
2022-12-02T21:42:01.555Z,3.32
2022-12-02T21:49:02.007Z,3.32
2022-12-02T21:56:01.786Z,3.26
2022-12-02T22:00:02.475Z,3.26
2022-12-02T22:07:01.976Z,3.27
2022-12-02T22:14:02.026Z,3.27
2022-12-02T22:21:01.846Z,3.22
2022-12-02T22:28:01.922Z,3.24
2022-12-02T22:35:02.543Z,3.24
2022-12-02T22:42:01.426Z,3.24
2022-12-02T22:49:01.811Z,3.24
2022-12-02T22:56:01.631Z,3.21
2022-12-02T23:00:02.275Z,3.21
2022-12-02T23:07:02.117Z,3.24
2022-12-02T23:14:01.970Z,3.24
2022-12-02T23:21:01.442Z,3.24
2022-12-02T23:28:01.845Z,3.24
2022-12-02T23:35:02.225Z,3.25
2022-12-02T23:42:01.520Z,3.25
2022-12-02T23:49:01.509Z,3.23
2022-12-02T23:56:01.652Z,3.23
